createdAt,value
2023-04-29T00:01:23.564Z,97939.53
2023-04-29T00:03:30.626Z,97932.66
2023-04-29T00:05:36.403Z,97940.50
2023-04-29T00:07:44.292Z,97937.00
2023-04-29T00:09:49.166Z,97936.16
2023-04-29T00:11:54.084Z,97942.34
2023-04-29T00:13:58.958Z,97944.13
2023-04-29T00:16:04.097Z,97945.97
2023-04-29T00:18:09.619Z,97938.31
2023-04-29T00:20:15.681Z,97938.44
2023-04-29T00:22:22.176Z,97935.97
2023-04-29T00:24:30.292Z,97939.63
2023-04-29T00:26:35.563Z,97945.09
2023-04-29T00:28:40.494Z,97933.16
2023-04-29T00:30:45.728Z,97931.75
2023-04-29T00:32:50.407Z,97936.25
2023-04-29T00:34:55.581Z,97945.03
2023-04-29T00:37:00.957Z,97945.78
2023-04-29T00:39:08.866Z,97945.66
2023-04-29T00:41:16.889Z,97941.72
2023-04-29T00:43:21.859Z,97938.09
2023-04-29T00:45:27.806Z,97938.94
2023-04-29T00:47:35.134Z,97930.25
2023-04-29T00:49:40.694Z,97934.72
2023-04-29T00:51:45.889Z,97938.38
2023-04-29T00:53:51.287Z,97929.84
2023-04-29T00:55:56.470Z,97935.19
2023-04-29T00:58:04.516Z,97937.81
2023-04-29T01:00:14.114Z,97942.28
2023-04-29T01:02:20.432Z,97934.44
2023-04-29T01:04:25.644Z,97941.34
2023-04-29T01:06:36.216Z,97941.47
2023-04-29T01:08:54.352Z,97943.53
2023-04-29T01:11:11.043Z,97944.81
2023-04-29T01:13:22.006Z,97945.63
2023-04-29T01:15:36.117Z,97944.63
2023-04-29T01:17:47.434Z,97948.75
2023-04-29T01:19:56.226Z,97947.81
2023-04-29T01:22:01.699Z,97952.09
2023-04-29T01:24:10.294Z,97942.41
2023-04-29T01:26:16.011Z,97937.94
2023-04-29T01:28:49.423Z,97941.34
2023-04-29T01:31:03.893Z,97929.03
2023-04-29T01:33:17.633Z,97936.44
2023-04-29T01:35:41.997Z,97934.75
2023-04-29T01:37:59.202Z,97932.31
2023-04-29T01:40:15.177Z,97938.50
2023-04-29T01:42:32.846Z,97931.47
2023-04-29T01:44:42.488Z,97932.50
2023-04-29T01:46:55.043Z,97941.53
2023-04-29T01:49:04.942Z,97936.00
2023-04-29T01:51:10.159Z,97938.84
2023-04-29T01:53:16.086Z,97948.31
2023-04-29T01:55:24.789Z,97939.34
2023-04-29T01:57:48.431Z,97946.28
2023-04-29T02:00:12.813Z,97939.09
2023-04-29T02:02:29.004Z,97941.53
2023-04-29T02:04:43.903Z,97942.66
2023-04-29T02:06:48.879Z,97944.16
2023-04-29T02:08:55.999Z,97948.34
2023-04-29T02:11:03.505Z,97943.78
2023-04-29T02:13:14.957Z,97941.84
2023-04-29T02:15:20.823Z,97939.91
2023-04-29T02:17:25.606Z,97941.75
2023-04-29T02:19:30.510Z,97940.81
2023-04-29T02:21:35.544Z,97941.84
2023-04-29T02:23:40.973Z,97943.91
2023-04-29T02:25:45.860Z,97945.28
2023-04-29T02:27:53.463Z,97943.25
2023-04-29T02:29:58.486Z,97944.72
2023-04-29T02:32:03.898Z,97943.44
2023-04-29T02:34:08.923Z,97948.31
2023-04-29T02:36:13.897Z,97956.16
2023-04-29T02:38:18.805Z,97954.25
2023-04-29T02:40:25.832Z,97950.91
2023-04-29T02:42:30.850Z,97955.19
2023-04-29T02:44:38.872Z,97948.97
2023-04-29T02:46:45.975Z,97946.59
2023-04-29T02:48:50.948Z,97953.31
2023-04-29T02:50:56.042Z,97958.22
2023-04-29T02:53:01.035Z,97954.00
2023-04-29T02:55:06.077Z,97959.22
2023-04-29T02:57:11.575Z,97956.59
2023-04-29T02:59:17.297Z,97957.00
2023-04-29T03:01:24.855Z,97953.13
2023-04-29T03:03:30.234Z,97952.78
2023-04-29T03:05:36.201Z,97946.41
2023-04-29T03:07:41.613Z,97953.94
2023-04-29T03:09:46.715Z,97951.13
2023-04-29T03:11:51.855Z,97951.31
2023-04-29T03:13:57.659Z,97954.59
2023-04-29T03:16:02.402Z,97948.88
2023-04-29T03:18:10.454Z,97945.03
2023-04-29T03:20:15.915Z,97943.75
2023-04-29T03:22:20.821Z,97946.84
2023-04-29T03:24:26.517Z,97938.81
2023-04-29T03:26:31.384Z,97938.53
2023-04-29T03:28:36.409Z,97942.94
2023-04-29T03:30:44.123Z,97944.34
2023-04-29T03:32:49.170Z,97946.22
2023-04-29T03:34:57.910Z,97937.59
2023-04-29T03:37:10.716Z,97940.13
2023-04-29T03:39:18.942Z,97938.25
2023-04-29T03:41:24.345Z,97942.47
2023-04-29T03:43:29.492Z,97940.78
2023-04-29T03:45:34.172Z,97936.94
2023-04-29T03:47:39.522Z,97946.84
2023-04-29T03:49:44.741Z,97942.91
2023-04-29T03:51:52.216Z,97943.94
2023-04-29T03:53:59.157Z,97948.88
2023-04-29T03:56:04.821Z,97949.63
2023-04-29T03:58:09.782Z,97952.06
2023-04-29T04:00:16.113Z,97954.63
2023-04-29T04:02:29.079Z,97947.97
2023-04-29T04:04:34.200Z,97952.88
2023-04-29T04:06:39.453Z,97956.38
2023-04-29T04:08:46.798Z,97955.84
2023-04-29T04:10:55.953Z,97969.50
2023-04-29T04:13:19.300Z,97971.13
2023-04-29T04:15:24.525Z,97970.28
2023-04-29T04:17:29.148Z,97969.44
2023-04-29T04:19:34.258Z,97973.63
2023-04-29T04:21:39.161Z,97980.09
2023-04-29T04:23:51.499Z,97980.63
2023-04-29T04:26:00.153Z,97984.44
2023-04-29T04:28:37.650Z,97992.22
2023-04-29T04:30:49.737Z,97986.69
2023-04-29T04:32:54.720Z,97984.66
2023-04-29T04:34:59.542Z,97986.63
2023-04-29T04:37:05.032Z,97988.41
2023-04-29T04:39:13.325Z,97994.28
2023-04-29T04:41:18.228Z,97986.44
2023-04-29T04:43:25.363Z,97990.25
2023-04-29T04:45:32.476Z,97989.84
2023-04-29T04:47:37.741Z,97996.38
2023-04-29T04:49:50.280Z,97994.72
2023-04-29T04:51:55.466Z,98000.84
2023-04-29T04:54:00.359Z,98006.06
2023-04-29T04:56:11.087Z,98002.69
2023-04-29T04:58:16.696Z,98014.09
2023-04-29T05:00:21.426Z,98012.69
2023-04-29T05:02:27.047Z,98007.44
2023-04-29T05:04:32.505Z,98014.19
2023-04-29T05:06:37.870Z,98009.72
2023-04-29T05:08:44.976Z,98017.00
2023-04-29T05:10:51.824Z,98010.88
2023-04-29T05:12:59.552Z,98014.97
2023-04-29T05:15:04.640Z,98025.00
2023-04-29T05:17:11.512Z,98016.88
2023-04-29T05:19:16.514Z,98014.78
2023-04-29T05:21:21.266Z,98002.72
2023-04-29T05:23:26.251Z,98006.81
2023-04-29T05:25:31.398Z,98005.72
2023-04-29T05:27:36.910Z,98004.53
2023-04-29T05:29:47.846Z,98007.50
2023-04-29T05:31:53.069Z,98009.69
2023-04-29T05:33:57.838Z,98014.66
2023-04-29T05:36:03.566Z,98004.19
2023-04-29T05:38:09.592Z,98012.75
2023-04-29T05:40:17.801Z,98014.34
2023-04-29T05:42:23.594Z,98016.22
2023-04-29T05:44:29.336Z,98018.75
2023-04-29T05:46:37.052Z,98014.66
2023-04-29T05:48:41.984Z,98012.41
2023-04-29T05:50:48.811Z,98013.25
2023-04-29T05:52:54.885Z,98023.41
2023-04-29T05:55:00.368Z,98018.38
2023-04-29T05:57:05.633Z,98021.34
2023-04-29T05:59:10.671Z,98021.56
2023-04-29T06:01:15.555Z,98027.72
2023-04-29T06:03:23.495Z,98027.38
2023-04-29T06:05:36.044Z,98036.13
2023-04-29T06:08:08.227Z,98047.44
2023-04-29T06:10:24.928Z,98042.91
2023-04-29T06:12:29.975Z,98039.13
2023-04-29T06:14:36.658Z,98043.25
2023-04-29T06:16:42.613Z,98044.28
2023-04-29T06:18:50.449Z,98043.31
2023-04-29T06:20:55.428Z,98039.31
2023-04-29T06:23:00.573Z,98042.09
2023-04-29T06:25:06.976Z,98045.00
2023-04-29T06:27:26.019Z,98050.97
2023-04-29T06:29:30.914Z,98049.47
2023-04-29T06:31:35.878Z,98053.03
2023-04-29T06:33:42.819Z,98058.81
2023-04-29T06:35:50.663Z,98055.28
2023-04-29T06:38:21.712Z,98057.03
2023-04-29T06:40:49.974Z,98054.09
2023-04-29T06:42:55.180Z,98054.94
2023-04-29T06:45:13.135Z,98050.25
2023-04-29T06:47:24.301Z,98052.88
2023-04-29T06:49:48.602Z,98052.34
2023-04-29T06:51:56.171Z,98047.38
2023-04-29T06:54:04.626Z,98045.56
2023-04-29T06:56:10.781Z,98048.91
2023-04-29T06:58:16.116Z,98047.13
2023-04-29T07:00:22.940Z,98048.53
2023-04-29T07:02:28.056Z,98047.22
2023-04-29T07:04:33.154Z,98045.63
2023-04-29T07:06:38.099Z,98048.69
2023-04-29T07:08:50.453Z,98053.75
2023-04-29T07:10:59.412Z,98053.09
2023-04-29T07:13:04.396Z,98055.66
2023-04-29T07:15:10.746Z,98063.13
2023-04-29T07:17:15.770Z,98070.34
2023-04-29T07:19:20.983Z,98063.03
2023-04-29T07:21:26.940Z,98067.44
2023-04-29T07:23:32.382Z,98065.44
2023-04-29T07:25:39.878Z,98065.84
2023-04-29T07:27:45.267Z,98075.75
2023-04-29T07:29:50.082Z,98075.09
2023-04-29T07:31:55.054Z,98082.22
2023-04-29T07:34:00.027Z,98080.97
2023-04-29T07:36:05.305Z,98091.13
2023-04-29T07:38:10.423Z,98090.81
2023-04-29T07:40:15.318Z,98097.34
2023-04-29T07:42:23.654Z,98088.06
2023-04-29T07:44:29.266Z,98084.03
2023-04-29T07:46:35.658Z,98095.28
2023-04-29T07:48:41.936Z,98086.56
2023-04-29T07:50:47.192Z,98086.41
2023-04-29T07:52:52.108Z,98082.56
2023-04-29T07:54:58.473Z,98086.91
2023-04-29T07:57:03.795Z,98081.78
2023-04-29T07:59:11.764Z,98085.69
2023-04-29T08:01:17.177Z,98088.00
2023-04-29T08:03:22.382Z,98081.47
2023-04-29T08:05:28.285Z,98091.53
2023-04-29T08:07:33.541Z,98081.13
2023-04-29T08:09:38.523Z,98093.44
2023-04-29T08:11:43.441Z,98086.25
2023-04-29T08:13:51.229Z,98084.25
2023-04-29T08:15:58.785Z,98089.22
2023-04-29T08:18:03.867Z,98096.47
2023-04-29T08:20:12.343Z,98099.06
2023-04-29T08:22:17.392Z,98093.63
2023-04-29T08:24:22.947Z,98088.94
2023-04-29T08:26:28.180Z,98089.44
2023-04-29T08:28:33.172Z,98088.16
2023-04-29T08:30:41.105Z,98092.44
2023-04-29T08:32:48.985Z,98093.78
2023-04-29T08:34:54.165Z,98100.91
2023-04-29T08:37:00.512Z,98099.69
2023-04-29T08:39:05.435Z,98106.13
2023-04-29T08:41:12.535Z,98109.50
2023-04-29T08:43:17.968Z,98108.38
2023-04-29T08:45:23.511Z,98109.16
2023-04-29T08:47:29.352Z,98116.81
2023-04-29T08:49:38.298Z,98116.00
2023-04-29T08:51:43.394Z,98126.34
2023-04-29T08:53:48.342Z,98118.59
2023-04-29T08:55:53.552Z,98121.22
2023-04-29T08:57:59.712Z,98124.13
2023-04-29T09:00:05.898Z,98124.59
2023-04-29T09:02:17.299Z,98118.97
2023-04-29T09:04:37.431Z,98128.72
2023-04-29T09:06:47.105Z,98128.53
2023-04-29T09:08:52.473Z,98129.91
2023-04-29T09:10:58.608Z,98122.31
2023-04-29T09:13:03.628Z,98138.53
2023-04-29T09:15:09.682Z,98131.84
2023-04-29T09:17:16.456Z,98125.19
2023-04-29T09:19:34.764Z,98132.03
2023-04-29T09:21:39.895Z,98138.69
2023-04-29T09:23:48.190Z,98136.81
2023-04-29T09:25:59.423Z,98131.28
2023-04-29T09:28:17.969Z,98131.09
2023-04-29T09:30:23.017Z,98124.38
2023-04-29T09:32:27.814Z,98124.66
2023-04-29T09:34:37.566Z,98126.94
2023-04-29T09:36:48.684Z,98132.75
2023-04-29T09:38:59.362Z,98121.78
2023-04-29T09:41:18.461Z,98112.75
2023-04-29T09:43:24.206Z,98113.75
2023-04-29T09:45:37.221Z,98116.56
2023-04-29T09:47:42.176Z,98104.66
2023-04-29T09:49:50.141Z,98101.84
2023-04-29T09:51:59.680Z,98105.22
2023-04-29T09:54:23.617Z,98102.38
2023-04-29T09:56:31.048Z,98091.78
2023-04-29T09:58:39.201Z,98100.81
2023-04-29T10:00:45.003Z,98105.75
2023-04-29T10:02:51.332Z,98094.06
2023-04-29T10:04:58.096Z,98095.94
2023-04-29T10:07:05.985Z,98093.00
2023-04-29T10:09:16.520Z,98094.13
2023-04-29T10:11:21.837Z,98096.69
2023-04-29T10:13:28.505Z,98096.91
2023-04-29T10:15:40.887Z,98103.16
2023-04-29T10:17:49.646Z,98103.22
2023-04-29T10:20:01.087Z,98107.84
2023-04-29T10:22:11.928Z,98108.66
2023-04-29T10:24:21.669Z,98106.53
2023-04-29T10:26:30.142Z,98107.19
2023-04-29T10:28:35.779Z,98114.47
2023-04-29T10:30:43.860Z,98110.28
2023-04-29T10:32:52.193Z,98117.44
2023-04-29T10:34:59.447Z,98116.47
2023-04-29T10:37:05.787Z,98120.28
2023-04-29T10:39:17.299Z,98121.88
2023-04-29T10:41:28.595Z,98113.84
2023-04-29T10:43:34.663Z,98116.16
2023-04-29T10:45:39.943Z,98105.63
2023-04-29T10:48:12.044Z,98108.41
2023-04-29T10:50:17.810Z,98104.97
2023-04-29T10:52:22.654Z,98104.50
2023-04-29T10:54:27.519Z,98104.41
2023-04-29T10:56:42.831Z,98106.66
2023-04-29T10:58:48.858Z,98106.81
2023-04-29T11:00:53.814Z,98114.78
2023-04-29T11:02:59.000Z,98102.81
2023-04-29T11:05:11.184Z,98113.03
2023-04-29T11:07:30.142Z,98111.06
2023-04-29T11:09:38.937Z,98105.56
2023-04-29T11:11:49.135Z,98110.13
2023-04-29T11:13:54.048Z,98114.78
2023-04-29T11:16:08.168Z,98111.53
2023-04-29T11:18:14.823Z,98110.66
2023-04-29T11:20:20.056Z,98119.53
2023-04-29T11:22:28.638Z,98119.72
2023-04-29T11:24:33.556Z,98119.00
2023-04-29T11:26:39.171Z,98125.50
2023-04-29T11:28:47.122Z,98124.78
2023-04-29T11:30:53.265Z,98119.53
2023-04-29T11:33:02.107Z,98121.72
2023-04-29T11:35:14.592Z,98125.50
2023-04-29T11:37:24.507Z,98127.50
2023-04-29T11:39:37.725Z,98132.25
2023-04-29T11:41:42.707Z,98140.75
2023-04-29T11:43:58.575Z,98141.03
2023-04-29T11:46:03.629Z,98141.16
2023-04-29T11:48:08.791Z,98138.53
2023-04-29T11:50:16.096Z,98140.44
2023-04-29T11:52:21.096Z,98146.50
2023-04-29T11:54:28.716Z,98155.72
2023-04-29T11:56:33.656Z,98153.94
2023-04-29T11:58:38.583Z,98155.38
2023-04-29T12:00:46.366Z,98153.03
2023-04-29T12:02:51.417Z,98161.19
2023-04-29T12:04:57.842Z,98158.22
2023-04-29T12:07:03.185Z,98153.19
2023-04-29T12:09:08.852Z,98162.72
2023-04-29T12:11:14.151Z,98153.78
2023-04-29T12:13:18.831Z,98160.09
2023-04-29T12:15:24.106Z,98159.91
2023-04-29T12:17:31.765Z,98155.91
2023-04-29T12:19:37.661Z,98162.22
2023-04-29T12:21:52.537Z,98156.41
2023-04-29T12:23:57.719Z,98162.25
2023-04-29T12:26:03.454Z,98155.75
2023-04-29T12:28:08.559Z,98160.72
2023-04-29T12:30:14.470Z,98158.59
2023-04-29T12:32:21.112Z,98155.44
2023-04-29T12:34:31.732Z,98164.16
2023-04-29T12:36:37.939Z,98166.44
2023-04-29T12:38:42.785Z,98171.47
2023-04-29T12:40:48.744Z,98171.41
2023-04-29T12:42:53.776Z,98161.53
2023-04-29T12:44:58.784Z,98173.38
2023-04-29T12:47:11.056Z,98178.06
2023-04-29T12:49:16.130Z,98176.44
2023-04-29T12:51:23.593Z,98178.22
2023-04-29T12:53:29.464Z,98178.72
2023-04-29T12:55:36.170Z,98179.84
2023-04-29T12:57:41.206Z,98181.31
2023-04-29T12:59:46.108Z,98178.69
2023-04-29T13:01:51.149Z,98180.88
2023-04-29T13:03:56.283Z,98187.06
2023-04-29T13:06:01.615Z,98176.84
2023-04-29T13:08:09.188Z,98171.97
2023-04-29T13:10:15.478Z,98165.72
2023-04-29T13:12:20.457Z,98174.81
2023-04-29T13:14:25.454Z,98170.66
2023-04-29T13:16:30.490Z,98174.47
2023-04-29T13:18:36.585Z,98174.75
2023-04-29T13:20:43.922Z,98169.63
2023-04-29T13:22:48.824Z,98168.19
2023-04-29T13:24:56.679Z,98169.25
2023-04-29T13:27:03.184Z,98165.03
2023-04-29T13:29:08.374Z,98173.78
2023-04-29T13:31:13.449Z,98171.97
2023-04-29T13:33:18.631Z,98169.25
2023-04-29T13:35:24.348Z,98165.25
2023-04-29T13:37:29.316Z,98169.03
2023-04-29T13:39:38.156Z,98169.88
2023-04-29T13:41:46.700Z,98166.41
2023-04-29T13:43:55.594Z,98169.84
2023-04-29T13:46:02.677Z,98170.47
2023-04-29T13:48:21.016Z,98162.38
2023-04-29T13:55:04.277Z,98178.06
2023-04-29T13:58:07.958Z,98174.53
2023-04-29T13:59:50.624Z,98174.13
2023-04-29T14:04:05.790Z,98178.19
2023-04-29T14:06:10.903Z,98179.56
2023-04-29T14:08:15.608Z,98179.44
2023-04-29T14:10:20.836Z,98177.22
2023-04-29T14:12:28.315Z,98187.28
2023-04-29T14:14:33.320Z,98177.63
2023-04-29T14:16:38.162Z,98186.69
2023-04-29T14:18:43.094Z,98185.00
2023-04-29T14:20:47.976Z,98195.22
2023-04-29T14:22:53.250Z,98189.47
2023-04-29T14:24:57.896Z,98194.38
2023-04-29T14:27:02.803Z,98193.09
2023-04-29T14:29:10.458Z,98200.13
2023-04-29T14:31:17.378Z,98197.50
2023-04-29T14:33:22.400Z,98194.06
2023-04-29T14:35:28.927Z,98210.19
2023-04-29T14:37:33.791Z,98215.28
2023-04-29T14:39:38.923Z,98209.47
2023-04-29T14:41:43.802Z,98216.31
2023-04-29T14:43:48.798Z,98215.28
2023-04-29T14:45:56.317Z,98214.84
2023-04-29T14:48:01.597Z,98216.16
2023-04-29T14:50:07.421Z,98214.75
2023-04-29T14:52:12.696Z,98216.69
2023-04-29T14:54:17.446Z,98224.94
2023-04-29T14:56:22.499Z,98216.38
2023-04-29T14:58:27.270Z,98222.03
2023-04-29T15:00:32.261Z,98225.69
2023-04-29T15:02:39.747Z,98215.63
2023-04-29T15:04:46.487Z,98223.69
2023-04-29T15:06:51.537Z,98225.91
2023-04-29T15:08:57.166Z,98214.75
2023-04-29T15:11:02.193Z,98224.56
2023-04-29T15:13:07.160Z,98216.28
2023-04-29T15:15:13.474Z,98222.28
2023-04-29T15:17:18.777Z,98232.78
2023-04-29T15:19:26.738Z,98225.41
2023-04-29T15:21:32.549Z,98228.44
2023-04-29T15:23:37.392Z,98239.34
2023-04-29T15:25:42.263Z,98242.56
2023-04-29T15:27:47.504Z,98237.50
2023-04-29T15:29:54.729Z,98239.22
2023-04-29T15:31:59.852Z,98245.53
2023-04-29T15:34:04.812Z,98247.75
2023-04-29T15:36:13.459Z,98250.16
2023-04-29T15:38:18.582Z,98247.19
2023-04-29T15:40:23.545Z,98248.00
2023-04-29T15:42:28.607Z,98246.63
2023-04-29T15:44:33.511Z,98253.66
2023-04-29T15:46:38.371Z,98256.97
2023-04-29T15:48:43.240Z,98257.84
2023-04-29T15:50:48.237Z,98260.97
2023-04-29T15:52:58.945Z,98263.81
2023-04-29T15:55:04.211Z,98267.34
2023-04-29T15:57:09.165Z,98273.44
2023-04-29T15:59:14.040Z,98268.94
2023-04-29T16:01:18.956Z,98265.56
2023-04-29T16:03:24.065Z,98274.22
2023-04-29T16:05:29.165Z,98273.19
2023-04-29T16:07:35.483Z,98280.66
2023-04-29T16:09:44.608Z,98281.16
2023-04-29T16:11:49.743Z,98288.38
2023-04-29T16:13:54.445Z,98291.44
2023-04-29T16:15:59.496Z,98294.16
2023-04-29T16:18:04.362Z,98294.47
2023-04-29T16:20:11.168Z,98299.41
2023-04-29T16:22:16.050Z,98290.69
2023-04-29T16:24:21.084Z,98303.25
2023-04-29T16:26:28.695Z,98291.84
2023-04-29T16:28:33.666Z,98291.72
2023-04-29T16:30:39.129Z,98302.16
2023-04-29T16:32:44.480Z,98305.69
2023-04-29T16:34:49.371Z,98301.00
2023-04-29T16:36:54.482Z,98311.22
2023-04-29T16:38:59.640Z,98305.31
2023-04-29T16:41:07.470Z,98304.56
2023-04-29T16:43:16.672Z,98315.72
2023-04-29T16:45:23.695Z,98319.19
2023-04-29T16:47:28.923Z,98315.34
2023-04-29T16:49:34.866Z,98312.53
2023-04-29T16:51:39.789Z,98313.56
2023-04-29T16:53:45.888Z,98319.63
2023-04-29T16:55:51.023Z,98313.19
2023-04-29T16:57:55.946Z,98319.94
2023-04-29T17:00:04.710Z,98322.56
2023-04-29T17:02:09.651Z,98324.00
2023-04-29T17:04:14.648Z,98323.16
2023-04-29T17:06:19.767Z,98324.72
2023-04-29T17:08:24.512Z,98329.13
2023-04-29T17:10:29.781Z,98329.06
2023-04-29T17:12:35.100Z,98325.03
2023-04-29T17:14:43.423Z,98326.97
2023-04-29T17:16:50.911Z,98329.47
2023-04-29T17:18:56.326Z,98332.22
2023-04-29T17:21:02.958Z,98328.84
2023-04-29T17:23:08.363Z,98333.97
2023-04-29T17:25:13.926Z,98331.34
2023-04-29T17:27:18.922Z,98342.72
2023-04-29T17:29:23.858Z,98338.56
2023-04-29T17:31:45.128Z,98343.94
2023-04-29T17:33:55.548Z,98343.81
2023-04-29T17:36:01.488Z,98346.78
2023-04-29T17:38:06.504Z,98341.66
2023-04-29T17:40:12.469Z,98346.06
2023-04-29T17:42:17.449Z,98350.25
2023-04-29T17:44:23.635Z,98347.72
2023-04-29T17:46:28.811Z,98351.19
2023-04-29T17:48:33.627Z,98353.16
2023-04-29T17:50:41.709Z,98350.13
2023-04-29T17:52:46.786Z,98350.38
2023-04-29T17:54:51.730Z,98354.97
2023-04-29T17:56:57.155Z,98352.16
2023-04-29T17:59:02.099Z,98355.63
2023-04-29T18:01:08.301Z,98357.50
2023-04-29T18:03:13.426Z,98361.91
2023-04-29T18:05:18.135Z,98368.91
2023-04-29T18:07:25.598Z,98369.84
2023-04-29T18:09:30.696Z,98371.03
2023-04-29T18:11:35.772Z,98375.28
2023-04-29T18:13:40.675Z,98375.28
2023-04-29T18:15:45.786Z,98366.63
2023-04-29T18:17:51.215Z,98372.72
2023-04-29T18:19:56.321Z,98382.47
2023-04-29T18:22:02.927Z,98385.81
2023-04-29T18:24:10.476Z,98388.38
2023-04-29T18:26:15.481Z,98381.53
2023-04-29T18:28:25.289Z,98386.69
2023-04-29T18:30:30.680Z,98385.56
2023-04-29T18:32:35.574Z,98385.69
2023-04-29T18:34:40.683Z,98391.47
2023-04-29T18:36:45.582Z,98400.69
2023-04-29T18:38:50.440Z,98399.22
2023-04-29T18:40:57.895Z,98402.63
2023-04-29T18:43:02.900Z,98399.28
2023-04-29T18:45:09.176Z,98397.00
2023-04-29T18:47:14.294Z,98403.59
2023-04-29T18:49:19.160Z,98402.16
2023-04-29T18:51:24.253Z,98412.31
2023-04-29T18:53:30.148Z,98415.75
2023-04-29T18:55:35.485Z,98419.38
2023-04-29T18:57:43.645Z,98422.28
2023-04-29T18:59:48.613Z,98423.03
2023-04-29T19:01:53.760Z,98424.38
2023-04-29T19:03:58.476Z,98423.72
2023-04-29T19:06:03.970Z,98428.94
2023-04-29T19:08:09.596Z,98434.03
2023-04-29T19:10:14.608Z,98430.50
2023-04-29T19:12:19.538Z,98437.25
2023-04-29T19:14:27.029Z,98439.59
2023-04-29T19:16:32.574Z,98436.97
2023-04-29T19:18:38.908Z,98438.59
2023-04-29T19:20:44.016Z,98441.44
2023-04-29T19:22:49.058Z,98444.66
2023-04-29T19:24:53.914Z,98449.91
2023-04-29T19:26:58.828Z,98446.19
2023-04-29T19:29:03.896Z,98447.63
2023-04-29T19:31:11.980Z,98452.97
2023-04-29T19:33:17.420Z,98448.72
2023-04-29T19:35:22.471Z,98457.41
2023-04-29T19:37:27.320Z,98463.16
2023-04-29T19:39:32.288Z,98465.16
2023-04-29T19:41:38.560Z,98459.94
2023-04-29T19:43:43.454Z,98465.16
2023-04-29T19:45:48.400Z,98463.16
2023-04-29T19:47:55.943Z,98468.22
2023-04-29T19:50:00.790Z,98470.22
2023-04-29T19:52:07.012Z,98467.50
2023-04-29T19:54:12.024Z,98473.22
2023-04-29T19:56:16.909Z,98473.06
2023-04-29T19:58:21.859Z,98465.97
2023-04-29T20:00:27.401Z,98469.88
2023-04-29T20:02:33.075Z,98467.16
2023-04-29T20:04:40.863Z,98470.72
2023-04-29T20:06:46.381Z,98464.97
2023-04-29T20:08:51.839Z,98474.31
2023-04-29T20:10:57.068Z,98464.59
2023-04-29T20:13:02.217Z,98466.88
2023-04-29T20:15:08.403Z,98466.97
2023-04-29T20:17:13.719Z,98468.97
2023-04-29T20:19:18.367Z,98464.75
2023-04-29T20:21:26.330Z,98474.59
2023-04-29T20:23:31.398Z,98476.94
2023-04-29T20:25:36.282Z,98472.38
2023-04-29T20:27:41.825Z,98471.28
2023-04-29T20:29:47.362Z,98475.50
2023-04-29T20:31:52.376Z,98477.28
2023-04-29T20:33:57.071Z,98475.66
2023-04-29T20:36:06.613Z,98475.38
2023-04-29T20:38:14.378Z,98489.78
2023-04-29T20:40:19.305Z,98486.69
2023-04-29T20:42:24.257Z,98480.41
2023-04-29T20:44:29.758Z,98481.09
2023-04-29T20:46:34.736Z,98484.38
2023-04-29T20:48:40.093Z,98490.47
2023-04-29T20:50:45.345Z,98490.31
2023-04-29T20:52:50.496Z,98492.91
2023-04-29T20:54:58.932Z,98494.78
2023-04-29T20:57:05.749Z,98503.41
2023-04-29T20:59:10.854Z,98499.88
2023-04-29T21:01:15.910Z,98499.41
2023-04-29T21:03:22.437Z,98503.34
2023-04-29T21:05:27.084Z,98511.53
2023-04-29T21:07:32.071Z,98505.94
2023-04-29T21:09:37.237Z,98514.41
2023-04-29T21:11:44.940Z,98509.66
2023-04-29T21:13:51.537Z,98518.34
2023-04-29T21:15:56.452Z,98516.41
2023-04-29T21:18:01.379Z,98519.09
2023-04-29T21:20:07.959Z,98521.34
2023-04-29T21:22:12.814Z,98517.56
2023-04-29T21:24:17.971Z,98523.41
2023-04-29T21:26:22.860Z,98519.88
2023-04-29T21:28:30.511Z,98522.84
2023-04-29T21:30:35.410Z,98520.88
2023-04-29T21:32:40.489Z,98526.03
2023-04-29T21:34:45.335Z,98529.41
2023-04-29T21:36:50.316Z,98528.19
2023-04-29T21:38:55.850Z,98530.94
2023-04-29T21:41:03.555Z,98522.00
2023-04-29T21:43:08.940Z,98531.78
2023-04-29T21:45:17.912Z,98532.47
2023-04-29T21:47:23.391Z,98530.69
2023-04-29T21:49:28.562Z,98535.25
2023-04-29T21:51:34.592Z,98536.19
2023-04-29T21:53:40.483Z,98535.19
2023-04-29T21:55:45.446Z,98533.03
2023-04-29T21:57:50.414Z,98535.41
2023-04-29T21:59:55.532Z,98538.19
2023-04-29T22:02:14.344Z,98531.72
2023-04-29T22:04:19.950Z,98533.63
2023-04-29T22:06:24.938Z,98537.19
2023-04-29T22:08:29.708Z,98537.38
2023-04-29T22:10:34.666Z,98540.47
2023-04-29T22:12:42.032Z,98535.69
2023-04-29T22:14:47.193Z,98535.31
2023-04-29T22:16:51.901Z,98544.94
2023-04-29T22:18:59.987Z,98548.09
2023-04-29T22:21:04.895Z,98546.53
2023-04-29T22:23:09.815Z,98544.63
2023-04-29T22:25:14.743Z,98546.25
2023-04-29T22:27:19.669Z,98545.63
2023-04-29T22:29:24.648Z,98542.09
2023-04-29T22:31:29.803Z,98537.78
2023-04-29T22:33:35.238Z,98542.19
2023-04-29T22:35:42.737Z,98544.31
2023-04-29T22:37:47.631Z,98546.63
2023-04-29T22:39:52.844Z,98547.50
2023-04-29T22:41:57.589Z,98541.69
2023-04-29T22:44:02.969Z,98534.56
2023-04-29T22:46:08.047Z,98544.88
2023-04-29T22:48:12.941Z,98545.91
2023-04-29T22:50:17.944Z,98544.88
2023-04-29T22:52:27.195Z,98547.50
2023-04-29T22:54:32.180Z,98548.31
2023-04-29T22:56:37.105Z,98544.28
2023-04-29T22:58:42.361Z,98546.84
2023-04-29T23:00:47.644Z,98550.47
2023-04-29T23:02:52.610Z,98554.00
2023-04-29T23:04:58.104Z,98546.16
2023-04-29T23:07:03.054Z,98545.03
2023-04-29T23:09:10.637Z,98544.94
2023-04-29T23:11:15.491Z,98544.09
2023-04-29T23:13:20.872Z,98546.75
2023-04-29T23:15:25.950Z,98552.78
2023-04-29T23:17:31.036Z,98549.47
2023-04-29T23:19:36.321Z,98555.47
2023-04-29T23:21:41.619Z,98553.72
2023-04-29T23:23:46.506Z,98557.31
2023-04-29T23:25:54.172Z,98556.66
2023-04-29T23:27:59.166Z,98557.31
2023-04-29T23:30:04.083Z,98555.38
2023-04-29T23:32:08.964Z,98560.28
2023-04-29T23:34:18.124Z,98556.63
2023-04-29T23:36:23.071Z,98559.91
2023-04-29T23:38:28.140Z,98561.59
2023-04-29T23:40:32.828Z,98559.91
2023-04-29T23:42:44.063Z,98568.53
2023-04-29T23:44:48.959Z,98557.94
2023-04-29T23:46:54.134Z,98553.75
2023-04-29T23:48:59.040Z,98560.72
2023-04-29T23:51:03.962Z,98553.84
2023-04-29T23:53:09.068Z,98553.91
2023-04-29T23:55:13.948Z,98550.41
2023-04-29T23:57:19.005Z,98550.66
2023-04-29T23:59:26.505Z,98548.97
